createdAt,value
2023-01-01T00:01:29.991Z,10.63
2023-01-01T00:04:01.594Z,7.70
2023-01-01T00:06:31.679Z,7.45
2023-01-01T00:09:19.572Z,6.28
2023-01-01T00:11:49.345Z,5.73
2023-01-01T00:14:19.062Z,4.90
2023-01-01T00:16:48.943Z,5.43
2023-01-01T00:19:18.501Z,5.90
2023-01-01T00:21:47.999Z,5.55
2023-01-01T00:24:17.723Z,8.25
2023-01-01T00:26:47.483Z,5.93
2023-01-01T00:29:17.232Z,4.70
2023-01-01T00:31:46.878Z,7.80
2023-01-01T00:34:16.836Z,4.53
2023-01-01T00:36:46.360Z,3.60
2023-01-01T00:39:16.173Z,3.47
2023-01-01T00:41:45.907Z,4.43
2023-01-01T00:44:15.809Z,3.42
2023-01-01T00:46:45.643Z,3.53
2023-01-01T00:49:15.557Z,3.20
2023-01-01T00:51:45.347Z,4.80
2023-01-01T00:54:15.055Z,4.03
2023-01-01T00:56:44.830Z,3.20
2023-01-01T00:59:14.291Z,2.85
2023-01-01T01:01:44.201Z,2.93
2023-01-01T01:04:14.227Z,2.98
2023-01-01T01:06:44.058Z,2.83
2023-01-01T01:09:13.791Z,2.50
2023-01-01T01:11:43.562Z,2.33
2023-01-01T01:14:14.827Z,3.10
2023-01-01T01:16:44.625Z,2.50
2023-01-01T01:19:15.764Z,2.40
2023-01-01T01:21:47.141Z,2.93
2023-01-01T01:24:16.908Z,2.87
2023-01-01T01:26:46.754Z,2.53
2023-01-01T01:29:16.773Z,2.20
2023-01-01T01:31:46.658Z,2.13
2023-01-01T01:34:21.181Z,2.03
2023-01-01T01:36:49.666Z,2.12
2023-01-01T01:39:19.917Z,3.07
2023-01-01T01:41:49.691Z,2.47
2023-01-01T01:44:55.240Z,2.43
2023-01-01T01:47:49.280Z,1.90
2023-01-01T01:50:30.313Z,2.15
2023-01-01T01:53:24.555Z,2.17
2023-01-01T01:56:00.238Z,2.37
2023-01-01T01:58:31.940Z,2.33
2023-01-01T02:01:02.278Z,3.77
2023-01-01T02:03:54.493Z,1.90
2023-01-01T02:06:24.524Z,1.72
2023-01-01T02:08:54.943Z,2.07
2023-01-01T02:11:25.515Z,1.57
2023-01-01T02:13:56.861Z,2.52
2023-01-01T02:16:50.050Z,1.90
2023-01-01T02:19:25.547Z,2.30
2023-01-01T02:22:09.427Z,2.30
2023-01-01T02:24:59.710Z,1.97
2023-01-01T02:27:56.781Z,1.50
2023-01-01T02:30:29.280Z,1.70
2023-01-01T02:33:05.211Z,2.17
2023-01-01T02:35:43.039Z,2.07
2023-01-01T02:38:21.704Z,1.90
2023-01-01T02:40:54.405Z,1.40
2023-01-01T02:43:25.136Z,1.60
2023-01-01T02:45:55.614Z,2.27
2023-01-01T02:48:49.379Z,2.20
2023-01-01T02:51:38.332Z,1.57
2023-01-01T02:54:21.110Z,2.00
2023-01-01T02:57:02.796Z,6.43
2023-01-01T02:59:52.774Z,1.70
2023-01-01T03:02:28.223Z,2.37
2023-01-01T03:05:06.380Z,1.83
2023-01-01T03:07:48.035Z,2.10
2023-01-01T03:10:20.827Z,2.00
2023-01-01T03:12:59.486Z,1.90
2023-01-01T03:15:41.075Z,1.93
2023-01-01T03:18:29.384Z,2.62
2023-01-01T03:21:01.884Z,1.60
2023-01-01T03:23:35.993Z,1.60
2023-01-01T03:26:09.815Z,1.57
2023-01-01T03:28:51.260Z,2.00
2023-01-01T03:31:24.302Z,1.20
2023-01-01T03:34:06.172Z,1.57
2023-01-01T03:36:41.388Z,1.40
2023-01-01T03:39:16.827Z,1.40
2023-01-01T03:41:52.569Z,1.83
2023-01-01T03:44:57.256Z,1.67
2023-01-01T03:47:27.159Z,1.40
2023-01-01T03:49:58.709Z,1.80
2023-01-01T03:52:33.943Z,1.70
2023-01-01T03:55:15.184Z,1.53
2023-01-01T03:57:59.897Z,1.60
2023-01-01T04:00:37.287Z,1.60
2023-01-01T04:03:18.932Z,1.43
2023-01-01T04:05:48.591Z,1.25
2023-01-01T04:08:18.641Z,1.20
2023-01-01T04:10:54.121Z,2.00
2023-01-01T04:13:23.697Z,1.50
2023-01-01T04:15:53.245Z,1.60
2023-01-01T04:18:23.000Z,1.98
2023-01-01T04:20:52.783Z,1.37
2023-01-01T04:23:22.531Z,1.70
2023-01-01T04:25:52.310Z,1.20
2023-01-01T04:28:22.062Z,1.52
2023-01-01T04:33:23.826Z,1.50
2023-01-01T04:35:53.391Z,1.70
2023-01-01T04:38:22.830Z,1.53
2023-01-01T04:41:02.683Z,1.47
2023-01-01T04:43:33.170Z,1.63
2023-01-01T04:46:04.866Z,1.53
2023-01-01T04:48:36.623Z,1.80
2023-01-01T04:51:07.456Z,1.47
2023-01-01T04:53:37.215Z,1.47
2023-01-01T04:56:17.877Z,1.70
2023-01-01T04:58:48.005Z,1.70
2023-01-01T05:01:26.674Z,1.43
2023-01-01T05:03:57.544Z,1.73
2023-01-01T05:06:27.646Z,1.27
2023-01-01T05:08:59.504Z,1.80
2023-01-01T05:11:31.028Z,1.20
2023-01-01T05:14:02.567Z,1.13
2023-01-01T05:16:34.977Z,1.53
2023-01-01T05:19:05.712Z,1.77
2023-01-01T05:21:38.335Z,1.55
2023-01-01T05:24:11.224Z,1.40
2023-01-01T05:26:44.253Z,1.33
2023-01-01T05:29:16.997Z,1.43
2023-01-01T05:31:47.124Z,2.13
2023-01-01T05:34:16.725Z,1.20
2023-01-01T05:36:46.547Z,1.40
2023-01-01T05:39:16.312Z,1.90
2023-01-01T05:41:46.129Z,1.70
2023-01-01T05:44:17.163Z,1.60
2023-01-01T05:46:46.979Z,1.77
2023-01-01T05:49:16.746Z,1.50
2023-01-01T05:51:46.273Z,1.20
2023-01-01T05:56:44.898Z,1.37
2023-01-01T05:59:14.690Z,1.60
2023-01-01T06:01:46.084Z,1.27
2023-01-01T06:04:16.063Z,1.30
2023-01-01T06:06:45.799Z,1.50
2023-01-01T06:09:15.498Z,1.80
2023-01-01T06:11:45.295Z,1.47
2023-01-01T06:14:14.698Z,1.57
2023-01-01T06:16:44.797Z,1.70
2023-01-01T06:19:14.557Z,1.80
2023-01-01T06:21:44.317Z,1.67
2023-01-01T06:24:14.042Z,1.65
2023-01-01T06:26:43.848Z,1.50
2023-01-01T06:29:13.644Z,1.20
2023-01-01T06:31:43.723Z,1.15
2023-01-01T06:34:14.837Z,0.90
2023-01-01T06:36:44.672Z,1.10
2023-01-01T06:39:14.512Z,0.73
2023-01-01T06:41:44.328Z,0.60
2023-01-01T06:44:14.049Z,0.70
2023-01-01T06:46:43.930Z,0.80
2023-01-01T06:49:13.879Z,0.70
2023-01-01T06:51:45.054Z,0.60
2023-01-01T06:54:14.756Z,0.90
2023-01-01T06:56:44.827Z,1.07
2023-01-01T06:59:18.806Z,1.17
2023-01-01T07:01:48.718Z,0.90
2023-01-01T07:04:18.438Z,0.70
2023-01-01T07:06:48.468Z,0.60
2023-01-01T07:09:18.191Z,0.80
2023-01-01T07:11:47.946Z,0.73
2023-01-01T07:14:17.676Z,0.68
2023-01-01T07:16:47.100Z,0.60
2023-01-01T07:19:16.839Z,0.70
2023-01-01T07:21:49.339Z,0.65
2023-01-01T07:24:19.709Z,0.60
2023-01-01T07:26:49.275Z,0.80
2023-01-01T07:29:19.063Z,0.80
2023-01-01T07:31:49.170Z,0.57
2023-01-01T07:34:23.868Z,0.80
2023-01-01T07:36:53.642Z,0.60
2023-01-01T07:39:23.402Z,0.63
2023-01-01T07:41:53.137Z,0.70
2023-01-01T07:44:22.960Z,0.40
2023-01-01T07:46:54.192Z,0.90
2023-01-01T07:49:23.964Z,1.00
2023-01-01T07:51:53.692Z,1.20
2023-01-01T07:54:23.201Z,0.63
2023-01-01T07:56:52.962Z,0.90
2023-01-01T07:59:22.528Z,0.70
2023-01-01T08:01:52.446Z,0.80
2023-01-01T08:04:22.325Z,0.73
2023-01-01T08:06:52.080Z,0.70
2023-01-01T08:09:22.005Z,0.67
2023-01-01T08:11:53.148Z,0.83
2023-01-01T08:14:22.981Z,1.00
2023-01-01T08:16:52.933Z,1.10
2023-01-01T08:19:22.770Z,0.80
2023-01-01T08:21:52.546Z,1.00
2023-01-01T08:24:21.988Z,0.83
2023-01-01T08:26:52.045Z,0.87
2023-01-01T08:29:22.466Z,0.70
2023-01-01T08:31:52.227Z,1.20
2023-01-01T08:34:21.961Z,1.20
2023-01-01T08:36:52.060Z,1.33
2023-01-01T08:39:21.862Z,0.90
2023-01-01T08:41:51.906Z,1.22
2023-01-01T08:44:22.087Z,1.10
2023-01-01T08:46:55.864Z,1.40
2023-01-01T08:49:25.717Z,1.17
2023-01-01T08:51:55.462Z,1.00
2023-01-01T08:54:25.228Z,1.22
2023-01-01T08:56:54.944Z,0.87
2023-01-01T08:59:25.326Z,1.10
2023-01-01T09:01:55.282Z,1.40
2023-01-01T09:04:25.194Z,1.12
2023-01-01T09:06:55.093Z,1.00
2023-01-01T09:09:31.104Z,1.80
2023-01-01T09:12:00.110Z,0.90
2023-01-01T09:14:29.849Z,1.03
2023-01-01T09:16:59.456Z,1.10
2023-01-01T09:19:29.656Z,1.40
2023-01-01T09:21:59.557Z,0.83
2023-01-01T09:24:29.340Z,1.33
2023-01-01T09:26:59.168Z,1.33
2023-01-01T09:29:28.943Z,0.90
2023-01-01T09:31:58.767Z,0.90
2023-01-01T09:34:28.771Z,1.40
2023-01-01T09:36:58.536Z,1.90
2023-01-01T09:39:27.963Z,1.50
2023-01-01T09:42:06.537Z,1.52
2023-01-01T09:45:13.566Z,1.97
2023-01-01T09:47:49.944Z,1.87
2023-01-01T09:50:25.468Z,1.25
2023-01-01T09:53:01.205Z,1.77
2023-01-01T09:55:51.671Z,1.27
2023-01-01T09:58:24.534Z,1.77
2023-01-01T10:00:57.241Z,1.30
2023-01-01T10:03:30.400Z,2.00
2023-01-01T10:06:08.799Z,1.60
2023-01-01T10:08:44.486Z,1.30
2023-01-01T10:11:26.366Z,2.00
2023-01-01T10:13:58.892Z,1.40
2023-01-01T10:16:49.706Z,1.40
2023-01-01T10:19:46.846Z,1.95
2023-01-01T10:22:25.656Z,1.75
2023-01-01T10:25:01.056Z,1.40
2023-01-01T10:27:42.663Z,1.67
2023-01-01T10:30:19.856Z,1.85
2023-01-01T10:32:51.821Z,1.30
2023-01-01T10:35:30.262Z,1.37
2023-01-01T10:37:57.000Z,1.50
2023-01-01T10:40:28.790Z,1.57
2023-01-01T10:43:00.558Z,1.40
2023-01-01T10:45:41.770Z,1.60
2023-01-01T10:48:14.553Z,2.40
2023-01-01T10:50:47.385Z,1.87
2023-01-01T10:53:33.729Z,1.70
2023-01-01T10:56:15.270Z,1.40
2023-01-01T10:58:47.887Z,1.73
2023-01-01T11:01:23.622Z,1.50
2023-01-01T11:04:11.145Z,2.95
2023-01-01T11:06:45.588Z,2.03
2023-01-01T11:09:23.874Z,2.17
2023-01-01T11:12:11.828Z,2.20
2023-01-01T11:14:53.180Z,2.30
2023-01-01T11:17:28.434Z,2.90
2023-01-01T11:20:02.396Z,3.00
2023-01-01T11:22:50.363Z,3.22
2023-01-01T11:25:33.166Z,3.12
2023-01-01T11:28:22.539Z,3.20
2023-01-01T11:31:13.246Z,3.67
2023-01-01T11:33:57.435Z,2.93
2023-01-01T11:36:35.341Z,3.27
2023-01-01T11:39:25.959Z,3.50
2023-01-01T11:41:58.234Z,3.50
2023-01-01T11:44:39.846Z,3.63
2023-01-01T11:47:21.240Z,3.43
2023-01-01T11:52:41.162Z,4.40
2023-01-01T11:55:19.779Z,3.60
2023-01-01T11:58:17.499Z,3.67
2023-01-01T12:00:43.304Z,3.50
2023-01-01T12:03:33.129Z,3.57
2023-01-01T12:06:23.202Z,3.80
2023-01-01T12:09:04.629Z,3.30
2023-01-01T12:11:43.309Z,4.33
2023-01-01T12:14:32.543Z,3.98
2023-01-01T12:17:19.902Z,4.20
2023-01-01T12:19:56.099Z,4.08
2023-01-01T12:22:27.655Z,3.52
2023-01-01T12:24:58.936Z,3.27
2023-01-01T12:27:37.513Z,3.70
2023-01-01T12:30:22.742Z,3.10
2023-01-01T12:33:13.790Z,2.70
2023-01-01T12:36:04.810Z,2.40
2023-01-01T12:38:59.602Z,2.80
2023-01-01T12:41:38.383Z,2.90
2023-01-01T12:44:32.948Z,2.50
2023-01-01T12:47:29.705Z,2.50
2023-01-01T12:50:29.208Z,2.70
2023-01-01T12:53:14.724Z,2.57
2023-01-01T12:56:06.849Z,3.30
2023-01-01T12:58:39.660Z,2.30
2023-01-01T13:01:12.513Z,1.83
2023-01-01T13:03:45.363Z,2.23
2023-01-01T13:06:17.757Z,2.30
2023-01-01T13:08:50.889Z,2.43
2023-01-01T13:11:20.649Z,1.75
2023-01-01T13:13:50.566Z,2.17
2023-01-01T13:16:41.616Z,2.20
2023-01-01T13:19:29.464Z,2.50
2023-01-01T13:22:00.146Z,2.40
2023-01-01T13:24:30.046Z,2.20
2023-01-01T13:26:59.934Z,2.43
2023-01-01T13:29:34.398Z,2.67
2023-01-01T13:32:06.931Z,2.37
2023-01-01T13:34:46.143Z,2.10
2023-01-01T13:37:26.736Z,3.13
2023-01-01T13:40:01.689Z,2.03
2023-01-01T13:42:50.536Z,2.40
2023-01-01T13:48:09.191Z,2.03
2023-01-01T13:50:50.594Z,2.53
2023-01-01T13:53:38.348Z,2.23
2023-01-01T13:56:15.247Z,2.13
2023-01-01T13:58:59.379Z,2.40
2023-01-01T14:01:54.721Z,2.13
2023-01-01T14:04:33.131Z,2.20
2023-01-01T14:07:25.117Z,1.90
2023-01-01T14:09:39.043Z,2.30
2023-01-01T14:12:20.581Z,2.27
2023-01-01T14:14:50.347Z,2.03
2023-01-01T14:17:21.749Z,3.22
2023-01-01T14:19:51.773Z,2.23
2023-01-01T14:22:22.302Z,2.30
2023-01-01T14:24:54.273Z,2.13
2023-01-01T14:27:24.935Z,2.58
2023-01-01T14:29:55.810Z,2.70
2023-01-01T14:32:28.206Z,2.15
2023-01-01T14:35:02.456Z,2.20
2023-01-01T14:37:32.254Z,2.50
2023-01-01T14:40:10.782Z,3.20
2023-01-01T14:42:41.992Z,2.17
2023-01-01T14:45:19.648Z,2.72
2023-01-01T14:47:55.524Z,2.10
2023-01-01T14:50:28.636Z,2.15
2023-01-01T14:53:04.262Z,2.57
2023-01-01T14:55:45.809Z,1.98
2023-01-01T14:58:21.434Z,2.45
2023-01-01T15:00:54.699Z,2.40
2023-01-01T15:03:26.336Z,2.73
2023-01-01T15:06:01.481Z,2.77
2023-01-01T15:08:31.577Z,3.10
2023-01-01T15:11:04.515Z,2.70
2023-01-01T15:13:34.284Z,6.37
2023-01-01T15:16:20.353Z,2.96
2023-01-01T15:18:53.080Z,11.20
2023-01-01T15:21:41.320Z,4.10
2023-01-01T15:24:19.502Z,3.10
2023-01-01T15:26:55.232Z,2.80
2023-01-01T15:29:36.259Z,3.37
2023-01-01T15:32:11.161Z,2.60
2023-01-01T15:34:52.467Z,3.17
2023-01-01T15:37:52.078Z,5.90
2023-01-01T15:40:25.189Z,8.58
2023-01-01T15:43:04.115Z,4.23
2023-01-01T15:45:36.750Z,3.33
2023-01-01T15:48:13.574Z,2.60
2023-01-01T15:50:52.692Z,3.22
2023-01-01T15:53:25.718Z,5.80
2023-01-01T15:56:07.263Z,3.57
2023-01-01T15:58:40.080Z,4.07
2023-01-01T16:01:16.052Z,3.97
2023-01-01T16:03:47.691Z,2.92
2023-01-01T16:06:22.368Z,3.13
2023-01-01T16:08:52.110Z,3.27
2023-01-01T16:11:21.964Z,3.90
2023-01-01T16:13:51.765Z,3.00
2023-01-01T16:16:30.023Z,5.47
2023-01-01T16:19:00.415Z,4.77
2023-01-01T16:21:32.867Z,5.17
2023-01-01T16:24:02.757Z,3.90
2023-01-01T16:26:32.512Z,3.70
2023-01-01T16:29:02.290Z,3.50
2023-01-01T16:31:32.085Z,3.40
2023-01-01T16:34:02.916Z,4.03
2023-01-01T16:36:33.529Z,3.47
2023-01-01T16:39:03.241Z,2.80
2023-01-01T16:41:33.077Z,3.87
2023-01-01T16:44:02.874Z,3.33
2023-01-01T16:46:33.521Z,3.43
2023-01-01T16:49:04.519Z,3.27
2023-01-01T16:51:35.217Z,4.10
2023-01-01T16:54:05.094Z,4.13
2023-01-01T16:56:34.927Z,4.90
2023-01-01T16:59:04.975Z,4.58
2023-01-01T17:01:35.370Z,4.92
2023-01-01T17:04:07.641Z,4.17
2023-01-01T17:06:39.880Z,3.90
2023-01-01T17:09:09.620Z,3.63
2023-01-01T17:11:39.948Z,4.10
2023-01-01T17:14:12.641Z,3.70
2023-01-01T17:16:42.515Z,3.10
2023-01-01T17:19:16.258Z,3.27
2023-01-01T17:21:46.534Z,3.45
2023-01-01T17:24:19.024Z,3.37
2023-01-01T17:26:54.561Z,3.60
2023-01-01T17:29:25.283Z,3.87
2023-01-01T17:31:55.239Z,3.50
2023-01-01T17:34:25.371Z,3.35
2023-01-01T17:36:55.107Z,2.77
2023-01-01T17:39:24.837Z,3.13
2023-01-01T17:41:56.521Z,2.90
2023-01-01T17:44:26.054Z,3.37
2023-01-01T17:46:55.923Z,3.80
2023-01-01T17:49:25.718Z,3.73
2023-01-01T17:51:55.497Z,3.80
2023-01-01T17:54:25.325Z,4.80
2023-01-01T17:56:57.192Z,4.47
2023-01-01T17:59:26.948Z,4.10
2023-01-01T18:01:57.525Z,4.47
2023-01-01T18:04:27.310Z,3.93
2023-01-01T18:07:02.442Z,4.00
2023-01-01T18:09:29.062Z,3.80
2023-01-01T18:11:58.980Z,2.93
2023-01-01T18:14:28.742Z,3.23
2023-01-01T18:16:58.501Z,3.60
2023-01-01T18:19:28.480Z,3.50
2023-01-01T18:21:58.223Z,2.90
2023-01-01T18:24:27.647Z,3.07
2023-01-01T18:26:57.152Z,3.15
2023-01-01T18:29:26.890Z,3.17
2023-01-01T18:31:56.661Z,3.43
2023-01-01T18:34:26.728Z,2.73
2023-01-01T18:36:57.083Z,2.67
2023-01-01T18:39:34.854Z,2.87
2023-01-01T18:42:34.373Z,3.60
2023-01-01T18:45:02.699Z,3.55
2023-01-01T18:47:32.832Z,2.60
2023-01-01T18:50:27.640Z,3.67
2023-01-01T18:53:12.173Z,3.20
2023-01-01T18:55:41.972Z,3.40
2023-01-01T18:58:24.727Z,3.08
2023-01-01T19:00:55.332Z,3.67
2023-01-01T19:03:37.514Z,3.13
2023-01-01T19:06:05.247Z,3.27
2023-01-01T19:08:35.420Z,3.77
2023-01-01T19:11:07.869Z,3.50
2023-01-01T19:13:42.856Z,3.05
2023-01-01T19:16:23.946Z,3.25
2023-01-01T19:18:51.671Z,3.23
2023-01-01T19:21:24.477Z,2.73
2023-01-01T19:23:59.360Z,3.73
2023-01-01T19:26:38.864Z,3.97
2023-01-01T19:29:14.751Z,3.40
2023-01-01T19:34:14.000Z,3.45
2023-01-01T19:36:44.655Z,3.40
2023-01-01T19:39:15.520Z,3.37
2023-01-01T19:41:45.529Z,3.53
2023-01-01T19:44:19.908Z,4.53
2023-01-01T19:46:46.938Z,4.20
2023-01-01T19:49:17.734Z,4.65
2023-01-01T19:51:47.479Z,5.30
2023-01-01T19:54:17.226Z,3.87
2023-01-01T19:56:48.304Z,4.50
2023-01-01T19:59:18.204Z,3.90
2023-01-01T20:02:09.751Z,4.40
2023-01-01T20:04:19.654Z,3.93
2023-01-01T20:06:49.722Z,4.22
2023-01-01T20:09:19.808Z,4.60
2023-01-01T20:11:50.848Z,4.30
2023-01-01T20:14:20.593Z,4.20
2023-01-01T20:16:52.113Z,4.33
2023-01-01T20:19:21.827Z,4.83
2023-01-01T20:22:09.094Z,4.67
2023-01-01T20:24:41.333Z,4.50
2023-01-01T20:27:12.164Z,4.33
2023-01-01T20:29:42.623Z,4.80
2023-01-01T20:32:13.294Z,4.47
2023-01-01T20:34:43.677Z,5.17
2023-01-01T20:37:30.750Z,4.50
2023-01-01T20:40:00.593Z,4.87
2023-01-01T20:42:30.324Z,5.80
2023-01-01T20:45:00.409Z,8.05
2023-01-01T20:47:30.129Z,6.87
2023-01-01T20:50:00.373Z,5.78
2023-01-01T20:52:30.573Z,5.00
2023-01-01T20:55:00.642Z,4.70
2023-01-01T20:57:30.374Z,5.07
2023-01-01T21:00:00.140Z,5.03
2023-01-01T21:02:30.489Z,4.87
2023-01-01T21:05:01.505Z,5.70
2023-01-01T21:07:31.273Z,5.50
2023-01-01T21:10:01.667Z,5.60
2023-01-01T21:12:31.112Z,6.07
2023-01-01T21:15:01.798Z,5.37
2023-01-01T21:17:31.251Z,5.50
2023-01-01T21:20:01.680Z,5.20
2023-01-01T21:22:32.668Z,4.87
2023-01-01T21:25:48.651Z,5.33
2023-01-01T21:27:38.632Z,5.50
2023-01-01T21:30:11.476Z,5.47
2023-01-01T21:32:43.942Z,5.80
2023-01-01T21:35:25.868Z,5.53
2023-01-01T21:37:58.509Z,5.12
2023-01-01T21:40:58.645Z,5.93
2023-01-01T21:43:47.847Z,5.20
2023-01-01T21:46:20.683Z,5.00
2023-01-01T21:49:08.405Z,5.80
2023-01-01T21:51:47.306Z,6.03
2023-01-01T21:54:19.821Z,5.63
2023-01-01T21:57:00.784Z,5.50
2023-01-01T21:59:41.793Z,5.75
2023-01-01T22:02:14.846Z,6.40
2023-01-01T22:04:52.082Z,7.12
2023-01-01T22:10:20.476Z,8.55
2023-01-01T22:13:01.607Z,7.20
2023-01-01T22:15:40.035Z,7.60
2023-01-01T22:18:14.625Z,6.92
2023-01-01T22:20:46.469Z,7.23
2023-01-01T22:23:22.520Z,7.42
2023-01-01T22:25:52.894Z,7.60
2023-01-01T22:28:26.928Z,7.90
2023-01-01T22:31:00.062Z,8.35
2023-01-01T22:33:41.477Z,7.10
2023-01-01T22:36:14.259Z,7.43
2023-01-01T22:38:44.237Z,8.00
2023-01-01T22:41:15.607Z,7.07
2023-01-01T22:43:47.286Z,6.30
2023-01-01T22:46:32.210Z,7.80
2023-01-01T22:49:08.210Z,6.97
2023-01-01T22:51:40.689Z,7.27
2023-01-01T22:54:13.009Z,7.74
2023-01-01T22:56:42.742Z,7.23
2023-01-01T22:59:12.776Z,7.42
2023-01-01T23:01:42.610Z,7.50
2023-01-01T23:04:12.345Z,7.23
2023-01-01T23:06:42.254Z,7.90
2023-01-01T23:09:12.561Z,6.97
2023-01-01T23:11:42.418Z,7.33
2023-01-01T23:14:35.596Z,7.40
2023-01-01T23:17:03.215Z,7.23
2023-01-01T23:19:32.946Z,7.87
2023-01-01T23:22:04.269Z,7.60
2023-01-01T23:24:34.688Z,7.30
2023-01-01T23:27:05.535Z,7.17
2023-01-01T23:29:36.013Z,7.43
2023-01-01T23:32:06.376Z,7.05
2023-01-01T23:34:36.200Z,7.27
2023-01-01T23:37:06.461Z,6.70
2023-01-01T23:39:36.692Z,7.03
2023-01-01T23:42:06.533Z,6.90
2023-01-01T23:44:36.277Z,6.60
2023-01-01T23:47:06.303Z,7.30
2023-01-01T23:49:36.302Z,6.37
2023-01-01T23:52:06.036Z,6.80
2023-01-01T23:54:37.776Z,6.75
2023-01-01T23:57:07.521Z,7.33
2023-01-01T23:59:37.270Z,6.50
